sensor_id;sensor_type;location;lat;lon;timestamp;pressure;altitude;pressure_sealevel;temperature;humidity
51289;BME280;37372;52.294;5.152;2023-04-27T00:00:36;102164.09;;;2.83;80.93
51289;BME280;37372;52.294;5.152;2023-04-27T00:03:02;102162.72;;;2.79;80.64
51289;BME280;37372;52.294;5.152;2023-04-27T00:05:38;102163.56;;;2.70;79.95
51289;BME280;37372;52.294;5.152;2023-04-27T00:08:04;102168.59;;;2.65;80.72
51289;BME280;37372;52.294;5.152;2023-04-27T00:10:40;102169.19;;;2.59;81.05
51289;BME280;37372;52.294;5.152;2023-04-27T00:13:05;102168.34;;;2.49;81.47
51289;BME280;37372;52.294;5.152;2023-04-27T00:15:39;102175.78;;;2.47;82.33
51289;BME280;37372;52.294;5.152;2023-04-27T00:18:06;102170.94;;;2.40;81.90
51289;BME280;37372;52.294;5.152;2023-04-27T00:20:36;102175.50;;;2.40;82.32
51289;BME280;37372;52.294;5.152;2023-04-27T00:23:04;102168.50;;;2.37;82.15
51289;BME280;37372;52.294;5.152;2023-04-27T00:25:42;102162.53;;;2.34;81.14
51289;BME280;37372;52.294;5.152;2023-04-27T00:28:07;102162.09;;;2.29;81.28
51289;BME280;37372;52.294;5.152;2023-04-27T00:30:37;102165.53;;;2.21;82.29
51289;BME280;37372;52.294;5.152;2023-04-27T00:33:03;102162.69;;;2.23;82.71
51289;BME280;37372;52.294;5.152;2023-04-27T00:35:40;102156.09;;;2.25;82.69
51289;BME280;37372;52.294;5.152;2023-04-27T00:38:06;102150.56;;;2.27;82.19
51289;BME280;37372;52.294;5.152;2023-04-27T00:40:39;102158.13;;;2.23;82.27
51289;BME280;37372;52.294;5.152;2023-04-27T00:43:06;102156.56;;;2.21;82.03
51289;BME280;37372;52.294;5.152;2023-04-27T00:45:44;102172.66;;;2.22;82.04
51289;BME280;37372;52.294;5.152;2023-04-27T00:48:11;102165.09;;;2.16;81.51
51289;BME280;37372;52.294;5.152;2023-04-27T00:50:43;102167.13;;;2.14;81.36
51289;BME280;37372;52.294;5.152;2023-04-27T00:53:08;102160.53;;;2.16;81.32
51289;BME280;37372;52.294;5.152;2023-04-27T00:55:41;102158.25;;;2.12;81.10
51289;BME280;37372;52.294;5.152;2023-04-27T00:58:07;102169.38;;;2.09;82.33
51289;BME280;37372;52.294;5.152;2023-04-27T01:00:41;102161.56;;;1.96;82.52
51289;BME280;37372;52.294;5.152;2023-04-27T01:03:07;102149.75;;;1.87;83.12
51289;BME280;37372;52.294;5.152;2023-04-27T01:05:44;102156.28;;;1.85;84.07
51289;BME280;37372;52.294;5.152;2023-04-27T01:08:11;102160.84;;;1.84;83.74
51289;BME280;37372;52.294;5.152;2023-04-27T01:10:43;102161.41;;;1.88;83.62
51289;BME280;37372;52.294;5.152;2023-04-27T01:13:09;102158.28;;;1.83;83.48
51289;BME280;37372;52.294;5.152;2023-04-27T01:15:44;102154.56;;;1.84;83.21
51289;BME280;37372;52.294;5.152;2023-04-27T01:18:11;102158.56;;;1.89;82.98
51289;BME280;37372;52.294;5.152;2023-04-27T01:20:43;102161.97;;;1.92;82.99
51289;BME280;37372;52.294;5.152;2023-04-27T01:23:15;102161.13;;;1.91;82.61
51289;BME280;37372;52.294;5.152;2023-04-27T01:25:49;102163.41;;;1.96;82.71
51289;BME280;37372;52.294;5.152;2023-04-27T01:28:15;102162.97;;;1.90;82.56
51289;BME280;37372;52.294;5.152;2023-04-27T01:30:48;102160.97;;;1.93;82.32
51289;BME280;37372;52.294;5.152;2023-04-27T01:33:14;102161.13;;;1.91;82.37
51289;BME280;37372;52.294;5.152;2023-04-27T01:35:49;102153.44;;;1.96;82.31
51289;BME280;37372;52.294;5.152;2023-04-27T01:38:15;102157.41;;;1.92;81.96
51289;BME280;37372;52.294;5.152;2023-04-27T01:40:50;102144.63;;;1.94;83.17
51289;BME280;37372;52.294;5.152;2023-04-27T01:43:16;102138.34;;;1.74;83.08
51289;BME280;37372;52.294;5.152;2023-04-27T01:46:07;102137.47;;;1.64;84.23
51289;BME280;37372;52.294;5.152;2023-04-27T01:48:35;102139.31;;;1.73;84.12
51289;BME280;37372;52.294;5.152;2023-04-27T01:51:01;102135.19;;;1.69;83.99
51289;BME280;37372;52.294;5.152;2023-04-27T01:53:27;102133.78;;;1.75;83.59
51289;BME280;37372;52.294;5.152;2023-04-27T01:55:58;102139.75;;;1.78;82.95
51289;BME280;37372;52.294;5.152;2023-04-27T01:58:27;102133.06;;;1.73;82.86
51289;BME280;37372;52.294;5.152;2023-04-27T02:00:56;102132.63;;;1.77;83.66
51289;BME280;37372;52.294;5.152;2023-04-27T02:03:21;102135.63;;;1.84;82.71
51289;BME280;37372;52.294;5.152;2023-04-27T02:05:57;102137.91;;;1.88;82.50
51289;BME280;37372;52.294;5.152;2023-04-27T02:08:24;102140.63;;;1.88;81.55
51289;BME280;37372;52.294;5.152;2023-04-27T02:11:01;102133.50;;;1.68;83.11
51289;BME280;37372;52.294;5.152;2023-04-27T02:13:26;102138.59;;;1.52;84.00
51289;BME280;37372;52.294;5.152;2023-04-27T02:15:59;102130.88;;;1.38;85.11
51289;BME280;37372;52.294;5.152;2023-04-27T02:18:30;102123.88;;;1.35;85.56
51289;BME280;37372;52.294;5.152;2023-04-27T02:20:58;102128.44;;;1.34;86.02
51289;BME280;37372;52.294;5.152;2023-04-27T02:23:35;102125.19;;;1.41;85.71
51289;BME280;37372;52.294;5.152;2023-04-27T02:26:14;102132.75;;;1.47;85.26
51289;BME280;37372;52.294;5.152;2023-04-27T02:28:42;102123.22;;;1.43;84.28
51289;BME280;37372;52.294;5.152;2023-04-27T02:31:07;102121.78;;;1.39;84.92
51289;BME280;37372;52.294;5.152;2023-04-27T02:33:32;102115.25;;;1.51;85.08
51289;BME280;37372;52.294;5.152;2023-04-27T02:36:01;102119.97;;;1.49;83.85
51289;BME280;37372;52.294;5.152;2023-04-27T02:38:29;102114.25;;;1.52;84.39
51289;BME280;37372;52.294;5.152;2023-04-27T02:41:07;102114.13;;;1.63;83.34
51289;BME280;37372;52.294;5.152;2023-04-27T02:43:32;102108.97;;;1.60;83.00
51289;BME280;37372;52.294;5.152;2023-04-27T02:46:05;102108.59;;;1.55;83.54
51289;BME280;37372;52.294;5.152;2023-04-27T02:48:31;102103.00;;;1.47;83.35
51289;BME280;37372;52.294;5.152;2023-04-27T02:51:07;102107.84;;;1.53;83.13
51289;BME280;37372;52.294;5.152;2023-04-27T02:53:33;102103.16;;;1.55;82.67
51289;BME280;37372;52.294;5.152;2023-04-27T02:56:08;102108.13;;;1.59;82.05
51289;BME280;37372;52.294;5.152;2023-04-27T02:58:35;102119.69;;;1.61;82.17
51289;BME280;37372;52.294;5.152;2023-04-27T03:01:09;102116.97;;;1.61;81.82
51289;BME280;37372;52.294;5.152;2023-04-27T03:03:34;102113.81;;;1.66;81.90
51289;BME280;37372;52.294;5.152;2023-04-27T03:06:10;102111.56;;;1.61;81.48
51289;BME280;37372;52.294;5.152;2023-04-27T03:08:36;102113.53;;;1.59;81.50
51289;BME280;37372;52.294;5.152;2023-04-27T03:11:20;102116.25;;;1.50;81.84
51289;BME280;37372;52.294;5.152;2023-04-27T03:13:46;102114.09;;;1.53;82.21
51289;BME280;37372;52.294;5.152;2023-04-27T03:16:12;102128.38;;;1.55;81.19
51289;BME280;37372;52.294;5.152;2023-04-27T03:18:38;102126.63;;;1.54;81.37
51289;BME280;37372;52.294;5.152;2023-04-27T03:21:12;102126.06;;;1.51;81.20
51289;BME280;37372;52.294;5.152;2023-04-27T03:23:42;102132.03;;;1.54;81.80
51289;BME280;37372;52.294;5.152;2023-04-27T03:26:13;102129.91;;;1.58;81.79
51289;BME280;37372;52.294;5.152;2023-04-27T03:28:39;102128.91;;;1.59;81.46
51289;BME280;37372;52.294;5.152;2023-04-27T03:31:13;102127.22;;;1.58;80.88
51289;BME280;37372;52.294;5.152;2023-04-27T03:33:40;102136.47;;;1.55;80.99
51289;BME280;37372;52.294;5.152;2023-04-27T03:36:16;102127.78;;;1.52;81.02
51289;BME280;37372;52.294;5.152;2023-04-27T03:38:42;102129.75;;;1.40;80.09
51289;BME280;37372;52.294;5.152;2023-04-27T03:41:16;102129.28;;;1.35;81.20
51289;BME280;37372;52.294;5.152;2023-04-27T03:43:41;102133.28;;;1.31;81.21
51289;BME280;37372;52.294;5.152;2023-04-27T03:46:25;102126.59;;;1.35;82.17
51289;BME280;37372;52.294;5.152;2023-04-27T03:48:51;102125.47;;;1.38;81.87
51289;BME280;37372;52.294;5.152;2023-04-27T03:51:23;102121.34;;;1.33;81.64
51289;BME280;37372;52.294;5.152;2023-04-27T03:53:50;102124.06;;;1.43;81.59
51289;BME280;37372;52.294;5.152;2023-04-27T03:56:17;102127.19;;;1.39;81.40
51289;BME280;37372;52.294;5.152;2023-04-27T03:58:43;102128.88;;;1.40;81.39
51289;BME280;37372;52.294;5.152;2023-04-27T04:01:20;102133.44;;;1.39;80.91
51289;BME280;37372;52.294;5.152;2023-04-27T04:03:46;102127.34;;;1.37;81.57
51289;BME280;37372;52.294;5.152;2023-04-27T04:06:28;102138.28;;;1.35;82.19
51289;BME280;37372;52.294;5.152;2023-04-27T04:08:53;102131.59;;;1.40;82.23
51289;BME280;37372;52.294;5.152;2023-04-27T04:11:27;102131.59;;;1.40;82.20
51289;BME280;37372;52.294;5.152;2023-04-27T04:13:53;102134.84;;;1.33;81.89
51289;BME280;37372;52.294;5.152;2023-04-27T04:16:27;102129.75;;;1.30;82.10
51289;BME280;37372;52.294;5.152;2023-04-27T04:18:55;102132.00;;;1.35;81.85
51289;BME280;37372;52.294;5.152;2023-04-27T04:21:27;102133.00;;;1.34;81.88
51289;BME280;37372;52.294;5.152;2023-04-27T04:23:53;102139.00;;;1.38;81.94
51289;BME280;37372;52.294;5.152;2023-04-27T04:26:23;102141.56;;;1.39;82.15
51289;BME280;37372;52.294;5.152;2023-04-27T04:28:55;102144.97;;;1.41;81.70
51289;BME280;37372;52.294;5.152;2023-04-27T04:31:27;102148.53;;;1.42;81.15
51289;BME280;37372;52.294;5.152;2023-04-27T04:33:53;102150.09;;;1.44;81.34
51289;BME280;37372;52.294;5.152;2023-04-27T04:36:30;102147.25;;;1.46;81.59
51289;BME280;37372;52.294;5.152;2023-04-27T04:38:56;102153.38;;;1.48;81.33
51289;BME280;37372;52.294;5.152;2023-04-27T04:41:30;102156.66;;;1.51;81.04
51289;BME280;37372;52.294;5.152;2023-04-27T04:43:56;102150.00;;;1.55;80.96
51289;BME280;37372;52.294;5.152;2023-04-27T04:46:31;102155.25;;;1.57;80.19
51289;BME280;37372;52.294;5.152;2023-04-27T04:48:57;102157.97;;;1.57;80.41
51289;BME280;37372;52.294;5.152;2023-04-27T04:51:30;102157.97;;;1.57;81.14
51289;BME280;37372;52.294;5.152;2023-04-27T04:53:56;102156.66;;;1.61;80.82
51289;BME280;37372;52.294;5.152;2023-04-27T04:56:33;102157.09;;;1.66;80.92
51289;BME280;37372;52.294;5.152;2023-04-27T04:58:59;102160.56;;;1.68;80.76
51289;BME280;37372;52.294;5.152;2023-04-27T05:01:26;102158.25;;;1.73;80.54
51289;BME280;37372;52.294;5.152;2023-04-27T05:03:51;102156.53;;;1.72;80.85
51289;BME280;37372;52.294;5.152;2023-04-27T05:06:39;102158.41;;;1.72;80.73
51289;BME280;37372;52.294;5.152;2023-04-27T05:09:05;102151.44;;;1.69;81.35
51289;BME280;37372;52.294;5.152;2023-04-27T05:11:39;102159.53;;;1.79;81.82
51289;BME280;37372;52.294;5.152;2023-04-27T05:14:07;102161.28;;;1.89;81.62
51289;BME280;37372;52.294;5.152;2023-04-27T05:16:46;102155.84;;;1.99;80.74
51289;BME280;37372;52.294;5.152;2023-04-27T05:19:13;102156.28;;;2.04;80.85
51289;BME280;37372;52.294;5.152;2023-04-27T05:22:00;102168.13;;;2.13;81.08
51289;BME280;37372;52.294;5.152;2023-04-27T05:24:26;102169.78;;;2.24;80.55
51289;BME280;37372;52.294;5.152;2023-04-27T05:26:52;102167.78;;;2.35;79.96
51289;BME280;37372;52.294;5.152;2023-04-27T05:29:21;102172.91;;;2.48;80.03
51289;BME280;37372;52.294;5.152;2023-04-27T05:31:46;102172.91;;;2.58;79.75
51289;BME280;37372;52.294;5.152;2023-04-27T05:34:11;102167.16;;;2.70;79.32
51289;BME280;37372;52.294;5.152;2023-04-27T05:36:42;102173.81;;;2.76;79.16
51289;BME280;37372;52.294;5.152;2023-04-27T05:39:08;102170.66;;;2.90;79.09
51289;BME280;37372;52.294;5.152;2023-04-27T05:41:41;102174.75;;;3.04;77.89
51289;BME280;37372;52.294;5.152;2023-04-27T05:44:08;102171.56;;;3.09;76.98
51289;BME280;37372;52.294;5.152;2023-04-27T05:46:42;102160.53;;;3.20;77.29
51289;BME280;37372;52.294;5.152;2023-04-27T05:49:08;102167.78;;;3.29;76.73
51289;BME280;37372;52.294;5.152;2023-04-27T05:51:46;102170.63;;;3.55;76.25
51289;BME280;37372;52.294;5.152;2023-04-27T05:54:11;102166.53;;;3.69;75.84
51289;BME280;37372;52.294;5.152;2023-04-27T05:56:55;102167.41;;;3.87;74.59
51289;BME280;37372;52.294;5.152;2023-04-27T05:59:20;102170.44;;;4.02;73.77
51289;BME280;37372;52.294;5.152;2023-04-27T06:01:47;102163.13;;;4.20;73.15
51289;BME280;37372;52.294;5.152;2023-04-27T06:04:13;102168.16;;;4.33;71.87
51289;BME280;37372;52.294;5.152;2023-04-27T06:06:42;102157.19;;;4.43;71.27
51289;BME280;37372;52.294;5.152;2023-04-27T06:09:08;102163.38;;;4.53;71.22
51289;BME280;37372;52.294;5.152;2023-04-27T06:11:41;102159.53;;;4.63;70.78
51289;BME280;37372;52.294;5.152;2023-04-27T06:14:09;102165.34;;;4.69;69.99
51289;BME280;37372;52.294;5.152;2023-04-27T06:16:41;102161.81;;;4.76;70.23
51289;BME280;37372;52.294;5.152;2023-04-27T06:19:10;102156.13;;;4.87;70.23
51289;BME280;37372;52.294;5.152;2023-04-27T06:21:49;102156.88;;;4.98;69.92
51289;BME280;37372;52.294;5.152;2023-04-27T06:24:16;102161.13;;;5.00;69.62
51289;BME280;37372;52.294;5.152;2023-04-27T06:26:56;102166.28;;;5.11;69.05
51289;BME280;37372;52.294;5.152;2023-04-27T06:29:22;102165.09;;;5.14;69.07
51289;BME280;37372;52.294;5.152;2023-04-27T06:31:49;102160.56;;;5.23;68.85
51289;BME280;37372;52.294;5.152;2023-04-27T06:34:15;102161.81;;;5.36;68.56
51289;BME280;37372;52.294;5.152;2023-04-27T06:36:57;102167.75;;;5.40;68.47
51289;BME280;37372;52.294;5.152;2023-04-27T06:39:23;102166.28;;;5.54;67.77
51289;BME280;37372;52.294;5.152;2023-04-27T06:42:12;102170.38;;;5.58;65.73
51289;BME280;37372;52.294;5.152;2023-04-27T06:44:39;102167.34;;;5.69;65.16
51289;BME280;37372;52.294;5.152;2023-04-27T06:47:05;102172.44;;;5.72;64.83
51289;BME280;37372;52.294;5.152;2023-04-27T06:49:31;102171.13;;;5.76;64.19
51289;BME280;37372;52.294;5.152;2023-04-27T06:51:57;102163.13;;;5.75;62.85
51289;BME280;37372;52.294;5.152;2023-04-27T06:54:26;102159.72;;;5.81;62.21
51289;BME280;37372;52.294;5.152;2023-04-27T06:56:59;102164.16;;;5.82;62.40
51289;BME280;37372;52.294;5.152;2023-04-27T06:59:25;102161.81;;;5.95;62.91
51289;BME280;37372;52.294;5.152;2023-04-27T07:01:51;102159.94;;;6.04;62.15
51289;BME280;37372;52.294;5.152;2023-04-27T07:04:25;102162.50;;;6.05;60.76
51289;BME280;37372;52.294;5.152;2023-04-27T07:06:57;102162.34;;;6.07;61.07
51289;BME280;37372;52.294;5.152;2023-04-27T07:09:23;102168.16;;;6.12;61.37
51289;BME280;37372;52.294;5.152;2023-04-27T07:12:07;102167.31;;;6.19;59.58
51289;BME280;37372;52.294;5.152;2023-04-27T07:14:36;102177.16;;;6.29;60.47
51289;BME280;37372;52.294;5.152;2023-04-27T07:17:01;102174.09;;;6.40;59.54
51289;BME280;37372;52.294;5.152;2023-04-27T07:19:27;102165.59;;;6.51;59.87
51289;BME280;37372;52.294;5.152;2023-04-27T07:22:00;102162.50;;;6.62;60.12
51289;BME280;37372;52.294;5.152;2023-04-27T07:24:26;102164.69;;;6.75;59.09
51289;BME280;37372;52.294;5.152;2023-04-27T07:26:58;102167.06;;;6.86;58.77
51289;BME280;37372;52.294;5.152;2023-04-27T07:29:27;102167.03;;;6.94;57.38
51289;BME280;37372;52.294;5.152;2023-04-27T07:31:59;102164.44;;;7.01;57.26
51289;BME280;37372;52.294;5.152;2023-04-27T07:34:27;102164.94;;;7.13;57.29
51289;BME280;37372;52.294;5.152;2023-04-27T07:37:02;102163.91;;;7.22;56.36
51289;BME280;37372;52.294;5.152;2023-04-27T07:39:36;102160.94;;;7.31;56.52
51289;BME280;37372;52.294;5.152;2023-04-27T07:42:02;102160.94;;;7.31;55.25
51289;BME280;37372;52.294;5.152;2023-04-27T07:44:30;102164.78;;;7.45;56.32
51289;BME280;37372;52.294;5.152;2023-04-27T07:47:00;102158.84;;;7.42;55.85
51289;BME280;37372;52.294;5.152;2023-04-27T07:49:36;102166.75;;;7.59;55.46
51289;BME280;37372;52.294;5.152;2023-04-27T07:52:06;102169.28;;;7.69;54.91
51289;BME280;37372;52.294;5.152;2023-04-27T07:54:38;102169.59;;;7.74;54.67
51289;BME280;37372;52.294;5.152;2023-04-27T07:57:10;102167.44;;;7.93;54.55
51289;BME280;37372;52.294;5.152;2023-04-27T07:59:36;102165.19;;;7.96;53.39
51289;BME280;37372;52.294;5.152;2023-04-27T08:02:04;102163.63;;;8.02;53.68
51289;BME280;37372;52.294;5.152;2023-04-27T08:04:48;102160.16;;;8.08;52.45
51289;BME280;37372;52.294;5.152;2023-04-27T08:07:17;102165.56;;;8.16;53.68
51289;BME280;37372;52.294;5.152;2023-04-27T08:09:43;102164.25;;;8.12;53.58
51289;BME280;37372;52.294;5.152;2023-04-27T08:12:10;102162.03;;;8.07;53.10
51289;BME280;37372;52.294;5.152;2023-04-27T08:14:37;102165.75;;;8.14;52.35
51289;BME280;37372;52.294;5.152;2023-04-27T08:17:12;102169.38;;;8.30;50.07
51289;BME280;37372;52.294;5.152;2023-04-27T08:19:39;102171.09;;;8.31;51.21
51289;BME280;37372;52.294;5.152;2023-04-27T08:22:10;102166.91;;;8.43;50.98
51289;BME280;37372;52.294;5.152;2023-04-27T08:24:38;102167.00;;;8.50;49.90
51289;BME280;37372;52.294;5.152;2023-04-27T08:27:11;102170.75;;;8.72;50.19
51289;BME280;37372;52.294;5.152;2023-04-27T08:29:37;102169.06;;;8.71;50.21
51289;BME280;37372;52.294;5.152;2023-04-27T08:32:12;102161.50;;;8.73;49.16
51289;BME280;37372;52.294;5.152;2023-04-27T08:34:38;102165.09;;;8.73;49.57
51289;BME280;37372;52.294;5.152;2023-04-27T08:37:15;102156.22;;;8.71;48.92
51289;BME280;37372;52.294;5.152;2023-04-27T08:39:50;102160.94;;;8.77;49.60
51289;BME280;37372;52.294;5.152;2023-04-27T08:42:20;102166.72;;;8.82;48.90
51289;BME280;37372;52.294;5.152;2023-04-27T08:44:47;102162.16;;;8.75;46.51
51289;BME280;37372;52.294;5.152;2023-04-27T08:47:14;102159.25;;;8.76;48.17
51289;BME280;37372;52.294;5.152;2023-04-27T08:49:40;102156.72;;;8.89;48.23
51289;BME280;37372;52.294;5.152;2023-04-27T08:52:17;102156.03;;;8.87;45.68
51289;BME280;37372;52.294;5.152;2023-04-27T08:54:42;102168.31;;;8.91;47.05
51289;BME280;37372;52.294;5.152;2023-04-27T08:57:17;102162.19;;;8.89;46.65
51289;BME280;37372;52.294;5.152;2023-04-27T08:59:43;102162.09;;;8.98;46.47
51289;BME280;37372;52.294;5.152;2023-04-27T09:02:20;102159.16;;;8.99;46.00
51289;BME280;37372;52.294;5.152;2023-04-27T09:04:45;102159.16;;;8.99;45.46
51289;BME280;37372;52.294;5.152;2023-04-27T09:07:22;102152.09;;;9.19;45.68
51289;BME280;37372;52.294;5.152;2023-04-27T09:10:02;102142.75;;;9.29;45.38
51289;BME280;37372;52.294;5.152;2023-04-27T09:12:27;102152.56;;;9.23;44.73
51289;BME280;37372;52.294;5.152;2023-04-27T09:14:58;102147.63;;;9.33;41.14
51289;BME280;37372;52.294;5.152;2023-04-27T09:17:28;102149.44;;;9.41;42.80
51289;BME280;37372;52.294;5.152;2023-04-27T09:20:09;102148.22;;;9.29;43.24
51289;BME280;37372;52.294;5.152;2023-04-27T09:22:54;102136.75;;;9.40;44.79
51289;BME280;37372;52.294;5.152;2023-04-27T09:25:32;102141.50;;;9.31;43.03
51289;BME280;37372;52.294;5.152;2023-04-27T09:28:03;102143.59;;;9.29;43.79
51289;BME280;37372;52.294;5.152;2023-04-27T09:30:28;102140.63;;;9.45;45.13
51289;BME280;37372;52.294;5.152;2023-04-27T09:33:00;102141.06;;;9.64;44.41
51289;BME280;37372;52.294;5.152;2023-04-27T09:35:32;102140.13;;;9.57;43.14
51289;BME280;37372;52.294;5.152;2023-04-27T09:37:58;102137.25;;;9.43;42.48
51289;BME280;37372;52.294;5.152;2023-04-27T09:40:26;102144.38;;;9.59;42.35
51289;BME280;37372;52.294;5.152;2023-04-27T09:42:57;102133.53;;;9.51;40.41
51289;BME280;37372;52.294;5.152;2023-04-27T09:45:26;102137.72;;;9.47;40.48
51289;BME280;37372;52.294;5.152;2023-04-27T09:47:52;102133.16;;;9.39;41.69
51289;BME280;37372;52.294;5.152;2023-04-27T09:50:21;102129.81;;;9.59;43.28
51289;BME280;37372;52.294;5.152;2023-04-27T09:52:46;102125.38;;;9.72;45.16
51289;BME280;37372;52.294;5.152;2023-04-27T09:55:39;102134.66;;;9.93;41.39
51289;BME280;37372;52.294;5.152;2023-04-27T10:09:05;102131.91;;;10.14;44.22
51289;BME280;37372;52.294;5.152;2023-04-27T10:11:46;102131.13;;;9.99;43.55
51289;BME280;37372;52.294;5.152;2023-04-27T10:14:16;102124.84;;;9.84;40.48
51289;BME280;37372;52.294;5.152;2023-04-27T10:16:52;102133.97;;;9.91;42.57
51289;BME280;37372;52.294;5.152;2023-04-27T10:19:21;102133.84;;;10.20;41.63
51289;BME280;37372;52.294;5.152;2023-04-27T10:21:57;102130.41;;;10.12;41.90
51289;BME280;37372;52.294;5.152;2023-04-27T10:24:55;102129.78;;;10.16;40.63
51289;BME280;37372;52.294;5.152;2023-04-27T10:27:38;102130.84;;;10.15;39.13
51289;BME280;37372;52.294;5.152;2023-04-27T10:30:12;102124.78;;;10.20;40.09
51289;BME280;37372;52.294;5.152;2023-04-27T10:32:49;102125.09;;;10.25;39.88
51289;BME280;37372;52.294;5.152;2023-04-27T10:35:15;102122.56;;;10.30;41.33
51289;BME280;37372;52.294;5.152;2023-04-27T10:37:43;102125.94;;;10.53;42.31
51289;BME280;37372;52.294;5.152;2023-04-27T10:40:11;102120.16;;;10.70;41.97
51289;BME280;37372;52.294;5.152;2023-04-27T10:42:43;102121.66;;;10.72;40.60
51289;BME280;37372;52.294;5.152;2023-04-27T10:45:10;102119.50;;;10.68;40.98
51289;BME280;37372;52.294;5.152;2023-04-27T10:47:41;102128.41;;;10.70;41.05
51289;BME280;37372;52.294;5.152;2023-04-27T10:50:08;102126.28;;;10.72;40.58
51289;BME280;37372;52.294;5.152;2023-04-27T10:52:44;102119.34;;;10.48;39.39
51289;BME280;37372;52.294;5.152;2023-04-27T10:55:19;102117.81;;;10.67;40.74
51289;BME280;37372;52.294;5.152;2023-04-27T10:57:50;102122.03;;;10.63;40.88
51289;BME280;37372;52.294;5.152;2023-04-27T11:00:26;102114.91;;;10.47;40.82
51289;BME280;37372;52.294;5.152;2023-04-27T11:05:36;102115.22;;;10.93;42.38
51289;BME280;37372;52.294;5.152;2023-04-27T11:08:12;102111.50;;;11.07;41.63
51289;BME280;37372;52.294;5.152;2023-04-27T11:10:41;102099.59;;;11.35;40.26
51289;BME280;37372;52.294;5.152;2023-04-27T11:13:13;102104.72;;;11.51;40.79
51289;BME280;37372;52.294;5.152;2023-04-27T11:15:49;102099.25;;;11.58;39.78
51289;BME280;37372;52.294;5.152;2023-04-27T11:18:17;102096.69;;;11.50;39.41
51289;BME280;37372;52.294;5.152;2023-04-27T11:20:47;102090.72;;;11.39;40.08
51289;BME280;37372;52.294;5.152;2023-04-27T11:23:29;102087.59;;;11.43;40.77
51289;BME280;37372;52.294;5.152;2023-04-27T11:26:14;102076.09;;;10.78;39.76
51289;BME280;37372;52.294;5.152;2023-04-27T11:28:43;102085.13;;;10.72;40.12
51289;BME280;37372;52.294;5.152;2023-04-27T11:31:11;102083.72;;;10.54;40.04
51289;BME280;37372;52.294;5.152;2023-04-27T11:33:36;102081.69;;;10.35;42.03
51289;BME280;37372;52.294;5.152;2023-04-27T11:36:15;102082.63;;;10.49;42.73
51289;BME280;37372;52.294;5.152;2023-04-27T11:38:41;102074.28;;;10.57;40.82
51289;BME280;37372;52.294;5.152;2023-04-27T11:41:08;102081.25;;;10.60;41.93
51289;BME280;37372;52.294;5.152;2023-04-27T11:43:40;102072.75;;;10.82;42.04
51289;BME280;37372;52.294;5.152;2023-04-27T11:46:06;102072.00;;;10.67;41.24
51289;BME280;37372;52.294;5.152;2023-04-27T11:48:36;102077.13;;;10.77;41.55
51289;BME280;37372;52.294;5.152;2023-04-27T11:51:03;102074.28;;;10.57;39.62
51289;BME280;37372;52.294;5.152;2023-04-27T11:53:36;102062.75;;;10.75;39.48
51289;BME280;37372;52.294;5.152;2023-04-27T11:56:08;102080.34;;;10.52;40.48
51289;BME280;37372;52.294;5.152;2023-04-27T11:58:37;102068.31;;;10.88;39.55
51289;BME280;37372;52.294;5.152;2023-04-27T12:01:08;102058.66;;;10.99;40.38
51289;BME280;37372;52.294;5.152;2023-04-27T12:03:35;102066.25;;;10.97;40.60
51289;BME280;37372;52.294;5.152;2023-04-27T12:06:01;102068.72;;;10.85;40.76
51289;BME280;37372;52.294;5.152;2023-04-27T12:08:27;102066.91;;;10.99;40.09
51289;BME280;37372;52.294;5.152;2023-04-27T12:10:55;102066.72;;;10.66;41.60
51289;BME280;37372;52.294;5.152;2023-04-27T12:13:20;102060.63;;;10.70;39.51
51289;BME280;37372;52.294;5.152;2023-04-27T12:15:47;102063.66;;;10.82;40.34
51289;BME280;37372;52.294;5.152;2023-04-27T12:18:12;102067.34;;;11.02;41.71
51289;BME280;37372;52.294;5.152;2023-04-27T12:20:39;102060.47;;;11.26;42.56
51289;BME280;37372;52.294;5.152;2023-04-27T12:23:06;102057.88;;;11.11;42.95
51289;BME280;37372;52.294;5.152;2023-04-27T12:25:33;102062.88;;;11.49;41.55
51289;BME280;37372;52.294;5.152;2023-04-27T12:28:08;102055.69;;;11.48;46.35
51289;BME280;37372;52.294;5.152;2023-04-27T12:30:45;102048.53;;;11.60;43.07
51289;BME280;37372;52.294;5.152;2023-04-27T12:33:15;102035.94;;;11.25;40.80
51289;BME280;37372;52.294;5.152;2023-04-27T12:35:41;102030.09;;;11.41;42.50
51289;BME280;37372;52.294;5.152;2023-04-27T12:38:07;102035.19;;;11.64;41.03
51289;BME280;37372;52.294;5.152;2023-04-27T12:40:32;102032.66;;;11.49;43.14
51289;BME280;37372;52.294;5.152;2023-04-27T12:43:00;102032.31;;;11.92;44.14
51289;BME280;37372;52.294;5.152;2023-04-27T12:45:27;102039.06;;;12.16;42.36
51289;BME280;37372;52.294;5.152;2023-04-27T12:47:59;102036.78;;;12.06;39.20
51289;BME280;37372;52.294;5.152;2023-04-27T12:50:26;102035.28;;;12.30;40.77
51289;BME280;37372;52.294;5.152;2023-04-27T12:53:05;102033.78;;;12.34;39.64
51289;BME280;37372;52.294;5.152;2023-04-27T12:55:31;102039.84;;;12.83;38.12
51289;BME280;37372;52.294;5.152;2023-04-27T12:58:07;102031.38;;;12.78;37.59
51289;BME280;37372;52.294;5.152;2023-04-27T13:00:37;102031.41;;;12.58;36.46
51289;BME280;37372;52.294;5.152;2023-04-27T13:03:05;102029.47;;;12.71;37.21
51289;BME280;37372;52.294;5.152;2023-04-27T13:05:31;102022.88;;;12.79;39.58
51289;BME280;37372;52.294;5.152;2023-04-27T13:08:20;102020.56;;;12.76;37.83
51289;BME280;37372;52.294;5.152;2023-04-27T13:10:47;102019.19;;;12.01;37.10
51289;BME280;37372;52.294;5.152;2023-04-27T13:13:13;102022.75;;;12.41;38.08
51289;BME280;37372;52.294;5.152;2023-04-27T13:15:40;102015.50;;;12.66;36.85
51289;BME280;37372;52.294;5.152;2023-04-27T13:18:12;102010.22;;;12.65;36.13
51289;BME280;37372;52.294;5.152;2023-04-27T13:20:37;102012.94;;;12.78;36.90
51289;BME280;37372;52.294;5.152;2023-04-27T13:23:19;102008.63;;;13.02;36.63
51289;BME280;37372;52.294;5.152;2023-04-27T13:25:45;101998.94;;;12.80;37.30
51289;BME280;37372;52.294;5.152;2023-04-27T13:28:13;102005.13;;;12.68;35.95